Goldfield, Iowa
Current Conditions -  °F | °C
As of 6:55 AM on Wednesday 26 Nov 2014 (Local Time) from KCAV Reporting Station
Light Snow Light Snow  
Wind Chill: 12°   Ceiling: 1100
Heat Index: 25°   Visibility: 3mi
Dew Point: 25°   Wind: 16mph
Humidity: 100%   Direction: 110°ESE
Pressure: 29.91"   Gusts: 23mph
Location:  42.74°N, 93.92°W
Report Text: KCAV 261255Z AUTO 11014G20KT 3SM -SN BKN011 BKN022 OVC048 M04/M04 A2991 RMK AO2
Loading
Personal Weather Stations






























Interactive Weather Map New forecast layout! Learn more

10-Day Weather Forecast

Advertisements
Track Severe Weather on mobile